createdAt,value
2024-04-07T22:22:02.880Z,60.08
2024-04-07T22:24:29.732Z,59.92
2024-04-07T22:27:00.879Z,60.07
2024-04-07T22:29:27.757Z,60.02
2024-04-07T22:31:55.909Z,60.06
2024-04-07T22:34:22.758Z,60.58
2024-04-07T22:36:49.668Z,60.67
2024-04-07T22:39:16.502Z,60.46
2024-04-07T22:41:43.355Z,60.44
2024-04-07T22:44:10.839Z,60.71
2024-04-07T22:46:37.814Z,60.69
2024-04-07T22:49:04.793Z,60.92
2024-04-07T22:51:32.748Z,60.91
2024-04-07T22:53:59.597Z,61.09
2024-04-07T22:56:26.523Z,61.45
2024-04-07T22:58:54.118Z,61.43
2024-04-07T23:01:20.916Z,61.94
2024-04-07T23:03:47.831Z,62.41
2024-04-07T23:06:14.781Z,62.67
2024-04-07T23:08:41.734Z,63.00
2024-04-07T23:11:10.100Z,63.98
2024-04-07T23:13:37.046Z,64.41
2024-04-07T23:16:08.564Z,64.89
2024-04-07T23:18:36.843Z,65.26
2024-04-07T23:21:13.806Z,65.54
2024-04-07T23:23:44.542Z,65.66
2024-04-07T23:26:11.856Z,65.90
2024-04-07T23:28:39.558Z,66.13
2024-04-07T23:31:07.133Z,66.40
2024-04-07T23:33:34.994Z,66.41
2024-04-07T23:36:06.710Z,66.70
2024-04-07T23:38:34.559Z,67.00
2024-04-07T23:41:01.640Z,67.24
2024-04-07T23:43:28.556Z,67.29
2024-04-07T23:45:55.552Z,67.73
2024-04-07T23:48:24.460Z,67.64
2024-04-07T23:50:51.352Z,67.44
2024-04-07T23:53:18.240Z,67.86
2024-04-07T23:55:46.921Z,67.80
2024-04-07T23:58:13.875Z,68.14
